Terminal Aerodrome Forecast
Issued by NWS

Home | Current Version | Previous Version | Text Only | Print | Product List | Glossary On
Versions: 1 2 3 4 5 6 7 8 9 10 11 12 13 14 15 16 17 18 19 20 21 22 23 24 25 26 27 28 29 30 31
000
FTUS44 KHGX 271125
TAFIAH
TAF
KIAH 271125Z 2712/2818 VRB04KT P6SM VCSH SCT020 BKN250
      TEMPO 2713/2715 BKN020
     FM271500 20008KT P6SM VCTS BKN035CB
      TEMPO 2717/2720 VRB13G25KT 3SM TSRA BR BKN020CB
     FM272200 16005KT P6SM SCT050 BKN120
     FM280900 VRB03KT P6SM SCT020 BKN250
     FM281600 19007KT P6SM VCTS BKN040CB=

USA.gov is the U.S. government's official web portal to all federal, state and local government web resources and services.